createdAt,value
2019-04-04T00:01:23.376Z,7.30
2019-04-04T00:03:52.968Z,7.30
2019-04-04T00:06:22.584Z,7.30
2019-04-04T00:08:51.946Z,7.20
2019-04-04T00:11:21.316Z,7.20
2019-04-04T00:13:50.681Z,7.20
2019-04-04T00:16:20.304Z,7.20
2019-04-04T00:18:49.663Z,7.20
2019-04-04T00:21:19.034Z,7.20
2019-04-04T00:23:48.633Z,7.20
2019-04-04T00:26:18.927Z,7.20
2019-04-04T00:28:48.701Z,7.20
2019-04-04T00:31:19.540Z,7.20
2019-04-04T00:33:49.052Z,7.20
2019-04-04T00:36:18.657Z,7.20
2019-04-04T00:38:48.016Z,7.20
2019-04-04T00:41:17.392Z,7.20
2019-04-04T00:43:46.756Z,7.20
2019-04-04T00:46:16.124Z,7.20
2019-04-04T00:48:45.726Z,7.20
2019-04-04T00:51:15.165Z,7.20
2019-04-04T00:53:44.527Z,7.20
2019-04-04T00:56:13.901Z,7.20
2019-04-04T00:58:43.263Z,7.20
2019-04-04T01:01:12.642Z,7.20
2019-04-04T01:03:41.980Z,7.20
2019-04-04T01:06:11.352Z,7.20
2019-04-04T01:08:40.717Z,7.20
2019-04-04T01:11:10.082Z,7.20
2019-04-04T01:13:39.681Z,7.20
2019-04-04T01:16:09.046Z,7.20
2019-04-04T01:18:38.414Z,7.20
2019-04-04T01:21:07.773Z,7.30
2019-04-04T01:23:37.233Z,7.30
2019-04-04T01:26:06.574Z,7.30
2019-04-04T01:28:37.202Z,7.30
2019-04-04T01:31:07.011Z,7.30
2019-04-04T01:33:36.615Z,7.40
2019-04-04T01:36:06.206Z,7.40
2019-04-04T01:38:35.576Z,7.30
2019-04-04T01:41:05.184Z,7.40
2019-04-04T01:43:34.556Z,7.40
2019-04-04T01:46:03.909Z,7.40
2019-04-04T01:48:33.677Z,7.40
2019-04-04T01:51:03.757Z,7.40
2019-04-04T01:53:34.057Z,7.40
2019-04-04T01:56:05.915Z,7.40
2019-04-04T01:58:34.504Z,7.40
2019-04-04T02:01:04.111Z,7.30
2019-04-04T02:03:33.482Z,7.30
2019-04-04T02:06:02.847Z,7.30
2019-04-04T02:08:32.217Z,7.20
2019-04-04T02:11:01.571Z,7.20
2019-04-04T02:13:30.964Z,7.20
2019-04-04T02:16:00.539Z,7.20
2019-04-04T02:18:29.918Z,7.20
2019-04-04T02:20:59.274Z,7.10
2019-04-04T02:23:31.433Z,7.20
2019-04-04T02:25:59.707Z,7.10
2019-04-04T02:28:29.072Z,7.20
2019-04-04T02:30:58.740Z,7.10
2019-04-04T02:33:32.018Z,7.20
2019-04-04T02:35:59.439Z,7.20
2019-04-04T02:38:28.793Z,7.20
2019-04-04T02:40:58.152Z,7.20
2019-04-04T02:43:28.619Z,7.10
2019-04-04T02:45:58.110Z,7.10
2019-04-04T02:48:27.480Z,7.10
2019-04-04T02:50:56.836Z,7.10
2019-04-04T02:53:26.201Z,7.10
2019-04-04T02:55:55.551Z,7.10
2019-04-04T02:58:25.154Z,7.10
2019-04-04T03:00:59.313Z,7.00
2019-04-04T03:03:25.604Z,7.00
2019-04-04T03:05:55.038Z,7.00
2019-04-04T03:08:24.402Z,7.00
2019-04-04T03:10:53.778Z,6.90
2019-04-04T03:13:23.298Z,6.90
2019-04-04T03:15:52.673Z,6.90
2019-04-04T03:18:22.025Z,6.90
2019-04-04T03:20:51.407Z,6.80
2019-04-04T03:23:21.900Z,6.80
2019-04-04T03:25:51.289Z,6.80
2019-04-04T03:28:20.645Z,6.80
2019-04-04T03:31:00.894Z,6.80
2019-04-04T03:33:21.132Z,6.80
2019-04-04T03:35:50.529Z,6.90
2019-04-04T03:38:19.883Z,6.90
2019-04-04T03:40:49.262Z,6.80
2019-04-04T03:43:18.629Z,6.90
2019-04-04T03:45:47.996Z,6.90
2019-04-04T03:48:18.583Z,6.90
2019-04-04T03:50:48.432Z,6.90
2019-04-04T03:53:19.270Z,6.90
2019-04-04T03:55:48.631Z,6.90
2019-04-04T03:58:18.245Z,6.90
2019-04-04T04:00:47.619Z,6.90
2019-04-04T04:03:17.220Z,6.90
2019-04-04T04:05:46.591Z,6.90
2019-04-04T04:08:15.952Z,7.00
2019-04-04T04:10:45.317Z,6.90
2019-04-04T04:13:17.363Z,7.00
2019-04-04T04:15:46.257Z,7.00
2019-04-04T04:18:20.092Z,7.00
2019-04-04T04:20:47.018Z,7.00
2019-04-04T04:23:16.614Z,7.00
2019-04-04T04:25:45.991Z,7.00
2019-04-04T04:28:19.816Z,7.00
2019-04-04T04:30:47.443Z,7.00
2019-04-04T04:33:16.797Z,7.00
2019-04-04T04:35:46.510Z,7.00
2019-04-04T04:38:15.869Z,7.00
2019-04-04T04:40:47.279Z,7.00
2019-04-04T04:43:16.336Z,7.00
2019-04-04T04:45:45.705Z,7.00
2019-04-04T04:48:15.383Z,7.00
2019-04-04T04:50:44.745Z,7.00
2019-04-04T04:53:14.115Z,7.00
2019-04-04T04:55:43.483Z,7.00
2019-04-04T04:58:12.848Z,7.00
2019-04-04T05:00:42.368Z,7.00
2019-04-04T05:03:12.390Z,7.00
2019-04-04T05:05:41.758Z,7.00
2019-04-04T05:08:11.120Z,7.00
2019-04-04T05:10:40.495Z,7.00
2019-04-04T05:13:09.856Z,7.00
2019-04-04T05:15:39.217Z,7.00
2019-04-04T05:18:11.700Z,6.90
2019-04-04T05:20:40.163Z,7.00
2019-04-04T05:23:11.090Z,7.00
2019-04-04T05:25:52.068Z,6.90
2019-04-04T05:28:11.783Z,7.00
2019-04-04T05:30:41.142Z,6.90
2019-04-04T05:33:10.509Z,7.00
2019-04-04T05:35:39.875Z,7.00
2019-04-04T05:38:12.293Z,7.00
2019-04-04T05:40:40.406Z,7.00
2019-04-04T05:43:09.790Z,7.00
2019-04-04T05:45:39.145Z,7.00
2019-04-04T05:48:08.596Z,7.00
2019-04-04T05:50:37.972Z,7.10
2019-04-04T05:53:07.364Z,7.10
2019-04-04T05:55:36.697Z,7.10
2019-04-04T05:58:06.069Z,7.10
2019-04-04T06:00:35.427Z,7.10
2019-04-04T06:03:04.791Z,7.20
2019-04-04T06:05:34.594Z,7.20
2019-04-04T06:08:03.983Z,7.20
2019-04-04T06:10:33.317Z,7.20
2019-04-04T06:13:02.691Z,7.20
2019-04-04T06:15:32.880Z,7.20
2019-04-04T06:18:02.362Z,7.30
2019-04-04T06:20:31.717Z,7.30
2019-04-04T06:23:01.084Z,7.40
2019-04-04T06:25:34.358Z,7.40
2019-04-04T06:28:01.563Z,7.50
2019-04-04T06:30:42.505Z,7.50
2019-04-04T06:33:04.805Z,7.60
2019-04-04T06:35:33.283Z,7.60
2019-04-04T06:38:02.655Z,7.70
2019-04-04T06:40:32.027Z,7.70
2019-04-04T06:43:03.834Z,7.70
2019-04-04T06:45:33.621Z,7.80
2019-04-04T06:48:03.105Z,7.80
2019-04-04T06:50:32.429Z,7.80
2019-04-04T06:53:02.145Z,7.90
2019-04-04T06:55:31.502Z,7.90
2019-04-04T06:58:00.891Z,8.00
2019-04-04T07:00:30.251Z,8.00
2019-04-04T07:02:59.614Z,8.10
2019-04-04T07:05:28.994Z,8.10
2019-04-04T07:07:58.358Z,8.10
2019-04-04T07:10:27.733Z,8.20
2019-04-04T07:13:14.594Z,8.20
2019-04-04T07:15:28.184Z,8.30
2019-04-04T07:17:57.548Z,8.40
2019-04-04T07:20:28.357Z,8.40
2019-04-04T07:22:57.967Z,8.50
2019-04-04T07:25:27.341Z,8.50
2019-04-04T07:27:57.287Z,8.60
2019-04-04T07:30:28.497Z,8.70
2019-04-04T07:32:58.009Z,8.70
2019-04-04T07:35:27.389Z,8.80
2019-04-04T07:37:57.559Z,8.80
2019-04-04T07:40:27.099Z,8.90
2019-04-04T07:42:56.785Z,8.90
2019-04-04T07:45:26.925Z,9.00
2019-04-04T07:47:56.362Z,9.10
2019-04-04T07:50:26.375Z,9.10
2019-04-04T07:52:56.446Z,9.20
2019-04-04T07:55:45.160Z,9.30
2019-04-04T07:58:14.536Z,9.40
2019-04-04T08:00:44.258Z,9.40
2019-04-04T08:03:13.619Z,9.50
2019-04-04T08:05:43.017Z,9.50
2019-04-04T08:08:12.382Z,9.50
2019-04-04T08:10:41.761Z,9.60
2019-04-04T08:13:11.118Z,9.60
2019-04-04T08:15:40.493Z,9.60
2019-04-04T08:18:09.860Z,9.70
2019-04-04T08:20:39.233Z,9.70
2019-04-04T08:23:08.595Z,9.80
2019-04-04T08:25:37.985Z,9.80
2019-04-04T08:28:07.337Z,9.90
2019-04-04T08:30:36.818Z,10.00
2019-04-04T08:33:06.195Z,10.00
2019-04-04T08:35:35.573Z,10.10
2019-04-04T08:38:04.944Z,10.20
2019-04-04T08:40:34.323Z,10.20
2019-04-04T08:43:03.689Z,10.20
2019-04-04T08:45:33.067Z,10.30
2019-04-04T08:48:02.436Z,10.40
2019-04-04T08:50:31.813Z,10.40
2019-04-04T08:53:01.263Z,10.60
2019-04-04T08:55:30.630Z,10.70
2019-04-04T08:58:00.021Z,10.90
2019-04-04T09:00:29.391Z,11.00
2019-04-04T09:02:58.755Z,11.10
2019-04-04T09:05:28.197Z,11.20
2019-04-04T09:07:57.568Z,11.30
2019-04-04T09:10:26.950Z,11.30
2019-04-04T09:12:56.330Z,11.40
2019-04-04T09:15:25.783Z,11.40
2019-04-04T09:17:55.154Z,11.40
2019-04-04T09:20:24.522Z,11.40
2019-04-04T09:22:53.898Z,11.40
2019-04-04T09:25:23.270Z,11.40
2019-04-04T09:27:52.831Z,11.40
2019-04-04T09:30:22.508Z,11.40
2019-04-04T09:32:52.244Z,11.40
2019-04-04T09:35:21.955Z,11.50
2019-04-04T09:37:51.346Z,11.50
2019-04-04T09:40:20.708Z,11.60
2019-04-04T09:42:50.083Z,11.70
2019-04-04T09:45:19.454Z,11.70
2019-04-04T09:47:48.824Z,11.70
2019-04-04T09:50:18.332Z,11.70
2019-04-04T09:52:47.713Z,11.70
2019-04-04T09:55:18.091Z,11.70
2019-04-04T09:57:50.237Z,11.60
2019-04-04T10:00:22.449Z,11.70
2019-04-04T10:02:51.824Z,11.60
2019-04-04T10:05:21.904Z,11.60
2019-04-04T10:07:51.283Z,11.70
2019-04-04T10:10:20.722Z,11.70
2019-04-04T10:12:50.099Z,11.70
2019-04-04T10:15:19.602Z,11.70
2019-04-04T10:17:49.438Z,11.70
2019-04-04T10:20:19.020Z,11.60
2019-04-04T10:22:48.711Z,11.50
2019-04-04T10:25:18.114Z,11.40
2019-04-04T10:27:47.503Z,11.30
2019-04-04T10:30:17.715Z,11.20
2019-04-04T10:32:47.329Z,11.00
2019-04-04T10:35:16.703Z,10.90
2019-04-04T10:37:46.095Z,10.80
2019-04-04T10:40:15.969Z,10.70
2019-04-04T10:42:46.179Z,10.60
2019-04-04T10:45:16.557Z,10.60
2019-04-04T10:47:45.925Z,10.60
2019-04-04T10:50:15.595Z,10.50
2019-04-04T10:52:45.005Z,10.50
2019-04-04T10:55:14.611Z,10.50
2019-04-04T10:57:44.486Z,10.50
2019-04-04T11:00:14.828Z,10.50
2019-04-04T11:02:44.513Z,10.50
2019-04-04T11:05:15.330Z,10.50
2019-04-04T11:07:45.389Z,10.50
2019-04-04T11:10:16.464Z,10.50
2019-04-04T11:12:45.859Z,10.50
2019-04-04T11:15:15.390Z,10.40
2019-04-04T11:17:45.042Z,10.40
2019-04-04T11:20:16.156Z,10.40
2019-04-04T11:22:45.531Z,10.40
2019-04-04T11:25:14.907Z,10.40
2019-04-04T11:27:44.284Z,10.30
2019-04-04T11:30:14.615Z,10.40
2019-04-04T11:32:48.844Z,10.30
2019-04-04T11:35:17.498Z,10.30
2019-04-04T11:37:46.864Z,10.20
2019-04-04T11:40:16.257Z,10.30
2019-04-04T11:42:45.627Z,10.20
2019-04-04T11:45:15.081Z,10.20
2019-04-04T11:47:44.464Z,10.20
2019-04-04T11:50:14.258Z,10.20
2019-04-04T11:52:43.633Z,10.20
2019-04-04T11:55:13.162Z,10.20
2019-04-04T11:57:42.842Z,10.20
2019-04-04T12:00:14.296Z,10.10
2019-04-04T12:02:43.673Z,10.20
2019-04-04T12:05:13.122Z,10.20
2019-04-04T12:07:42.492Z,10.40
2019-04-04T12:10:12.487Z,10.20
2019-04-04T12:12:42.133Z,10.20
2019-04-04T12:15:11.738Z,10.30
2019-04-04T12:17:41.093Z,10.30
2019-04-04T12:20:11.044Z,10.40
2019-04-04T12:22:40.749Z,10.40
2019-04-04T12:25:10.749Z,10.40
2019-04-04T12:27:40.119Z,10.50
2019-04-04T12:30:11.106Z,10.50
2019-04-04T12:32:40.496Z,10.60
2019-04-04T12:35:09.949Z,10.60
2019-04-04T12:37:39.323Z,10.70
2019-04-04T12:40:19.913Z,10.80
2019-04-04T12:42:41.112Z,10.80
2019-04-04T12:45:11.240Z,10.80
2019-04-04T12:47:40.614Z,10.70
2019-04-04T12:50:11.412Z,10.70
2019-04-04T12:52:40.785Z,10.60
2019-04-04T12:55:12.643Z,10.60
2019-04-04T12:57:42.013Z,10.60
2019-04-04T13:00:11.915Z,10.50
2019-04-04T13:02:41.290Z,10.50
2019-04-04T13:05:10.981Z,10.50
2019-04-04T13:07:40.352Z,10.50
2019-04-04T13:10:33.185Z,10.50
2019-04-04T13:13:01.691Z,10.60
2019-04-04T13:15:31.075Z,10.60
2019-04-04T13:18:00.451Z,10.60
2019-04-04T13:20:29.828Z,10.70
2019-04-04T13:22:59.203Z,10.70
2019-04-04T13:25:28.821Z,10.70
2019-04-04T13:27:58.191Z,10.70
2019-04-04T13:30:27.577Z,10.70
2019-04-04T13:32:56.981Z,10.70
2019-04-04T13:35:26.392Z,10.70
2019-04-04T13:37:55.769Z,10.60
2019-04-04T13:40:25.382Z,10.60
2019-04-04T13:42:54.755Z,10.60
2019-04-04T13:45:25.262Z,10.60
2019-04-04T13:47:55.384Z,10.50
2019-04-04T13:50:24.759Z,10.50
2019-04-04T13:52:54.148Z,10.50
2019-04-04T13:55:25.150Z,10.50
2019-04-04T13:57:55.983Z,10.40
2019-04-04T14:00:25.619Z,10.50
2019-04-04T14:02:54.998Z,10.50
2019-04-04T14:05:24.596Z,10.50
2019-04-04T14:07:54.121Z,10.50
2019-04-04T14:10:23.497Z,10.50
2019-04-04T14:12:52.872Z,10.50
2019-04-04T14:15:22.551Z,10.50
2019-04-04T14:17:51.936Z,10.50
2019-04-04T14:20:21.314Z,10.40
2019-04-04T14:22:51.465Z,10.40
2019-04-04T14:25:21.293Z,10.30
2019-04-04T14:27:50.909Z,10.30
2019-04-04T14:30:21.894Z,10.30
2019-04-04T14:32:51.274Z,10.30
2019-04-04T14:35:20.645Z,10.20
2019-04-04T14:37:50.868Z,10.20
2019-04-04T14:40:20.573Z,10.20
2019-04-04T14:42:50.274Z,10.20
2019-04-04T14:45:19.882Z,10.20
2019-04-04T14:47:49.263Z,10.20
2019-04-04T14:50:18.659Z,10.20
2019-04-04T14:52:49.256Z,10.20
2019-04-04T14:55:19.390Z,10.30
2019-04-04T14:57:48.778Z,10.30
2019-04-04T15:00:21.531Z,10.40
2019-04-04T15:02:52.432Z,10.40
2019-04-04T15:05:22.091Z,10.40
2019-04-04T15:07:51.489Z,10.50
2019-04-04T15:10:22.004Z,10.50
2019-04-04T15:12:52.098Z,10.50
2019-04-04T15:15:21.541Z,10.60
2019-04-04T15:17:50.965Z,10.60
2019-04-04T15:20:20.329Z,10.60
2019-04-04T15:22:49.700Z,10.70
2019-04-04T15:25:19.134Z,10.70
2019-04-04T15:27:48.525Z,10.70
2019-04-04T15:30:18.048Z,10.80
2019-04-04T15:32:47.415Z,10.80
2019-04-04T15:35:16.785Z,10.80
2019-04-04T15:37:46.157Z,10.80
2019-04-04T15:40:15.930Z,10.80
2019-04-04T15:42:46.853Z,10.80
2019-04-04T15:45:16.212Z,10.80
2019-04-04T15:47:45.893Z,10.80
2019-04-04T15:50:15.268Z,10.80
2019-04-04T15:52:46.168Z,10.80
2019-04-04T15:55:15.545Z,10.80
2019-04-04T15:57:44.933Z,10.80
2019-04-04T16:00:15.019Z,10.80
2019-04-04T16:02:44.631Z,10.80
2019-04-04T16:05:14.364Z,10.80
2019-04-04T16:07:43.732Z,10.80
2019-04-04T16:10:13.495Z,10.70
2019-04-04T16:12:42.869Z,10.70
2019-04-04T16:15:12.614Z,10.70
2019-04-04T16:17:41.984Z,10.70
2019-04-04T16:20:12.604Z,10.70
2019-04-04T16:22:42.239Z,10.70
2019-04-04T16:25:12.314Z,10.70
2019-04-04T16:27:42.477Z,10.70
2019-04-04T16:30:13.005Z,10.70
2019-04-04T16:32:43.913Z,10.70
2019-04-04T16:35:13.452Z,10.70
2019-04-04T16:37:43.177Z,10.70
2019-04-04T16:40:12.981Z,10.60
2019-04-04T16:42:42.327Z,10.60
2019-04-04T16:45:12.041Z,10.60
2019-04-04T16:47:41.409Z,10.60
2019-04-04T16:50:11.099Z,10.60
2019-04-04T16:52:40.472Z,10.70
2019-04-04T16:55:10.259Z,10.70
2019-04-04T16:57:39.627Z,10.70
2019-04-04T17:00:12.492Z,10.70
2019-04-04T17:02:41.935Z,10.70
2019-04-04T17:05:11.815Z,10.70
2019-04-04T17:07:41.199Z,10.70
2019-04-04T17:10:11.187Z,10.70
2019-04-04T17:12:40.563Z,10.70
2019-04-04T17:15:11.247Z,10.60
2019-04-04T17:17:40.856Z,10.60
2019-04-04T17:20:10.944Z,10.50
2019-04-04T17:22:40.316Z,10.50
2019-04-04T17:25:10.318Z,10.40
2019-04-04T17:27:39.706Z,10.30
2019-04-04T17:30:11.659Z,10.30
2019-04-04T17:32:41.029Z,10.30
2019-04-04T17:35:10.839Z,10.20
2019-04-04T17:37:40.192Z,10.10
2019-04-04T17:40:10.207Z,10.10
2019-04-04T17:42:39.601Z,10.00
2019-04-04T17:45:10.362Z,10.00
2019-04-04T17:47:39.986Z,9.90
2019-04-04T17:50:11.998Z,9.90
2019-04-04T17:52:41.438Z,9.80
2019-04-04T17:55:11.305Z,9.80
2019-04-04T17:57:41.066Z,9.70
2019-04-04T18:00:13.749Z,9.70
2019-04-04T18:02:43.131Z,9.60
2019-04-04T18:05:12.914Z,9.60
2019-04-04T18:07:42.279Z,9.50
2019-04-04T18:10:12.549Z,9.40
2019-04-04T18:12:41.939Z,9.40
2019-04-04T18:15:11.857Z,9.30
2019-04-04T18:17:41.554Z,9.30
2019-04-04T18:20:13.274Z,9.30
2019-04-04T18:22:45.182Z,9.20
2019-04-04T18:25:13.934Z,9.20
2019-04-04T18:27:43.570Z,9.10
2019-04-04T18:30:13.730Z,9.10
2019-04-04T18:32:43.145Z,9.10
2019-04-04T18:35:14.119Z,9.00
2019-04-04T18:37:43.800Z,9.00
2019-04-04T18:40:13.627Z,8.90
2019-04-04T18:42:52.661Z,8.90
2019-04-04T18:45:14.648Z,8.90
2019-04-04T18:47:44.060Z,8.90
2019-04-04T18:50:13.858Z,8.80
2019-04-04T18:52:43.234Z,8.80
2019-04-04T18:55:19.505Z,8.80
2019-04-04T18:57:44.018Z,8.80
2019-04-04T19:00:14.386Z,8.70
2019-04-04T19:02:45.661Z,8.70
2019-04-04T19:05:15.385Z,8.70
2019-04-04T19:07:44.837Z,8.70
2019-04-04T19:10:15.182Z,8.70
2019-04-04T19:12:44.895Z,8.70
2019-04-04T19:15:15.060Z,8.60
2019-04-04T19:17:44.442Z,8.60
2019-04-04T19:20:14.629Z,8.60
2019-04-04T19:22:44.091Z,8.60
2019-04-04T19:25:14.188Z,8.50
2019-04-04T19:27:43.632Z,8.50
2019-04-04T19:30:15.081Z,8.50
2019-04-04T19:32:44.535Z,8.50
2019-04-04T19:35:15.085Z,8.50
2019-04-04T19:37:44.506Z,8.50
2019-04-04T19:40:15.613Z,8.60
2019-04-04T19:42:47.689Z,8.50
2019-04-04T19:45:21.151Z,8.50
2019-04-04T19:47:50.190Z,8.50
2019-04-04T19:50:20.409Z,8.50
2019-04-04T19:52:49.799Z,8.40
2019-04-04T19:55:19.163Z,8.40
2019-04-04T19:57:48.560Z,8.30
2019-04-04T20:00:18.552Z,8.30
2019-04-04T20:02:47.996Z,8.30
2019-04-04T20:05:17.436Z,8.20
2019-04-04T20:07:46.806Z,8.20
2019-04-04T20:10:16.180Z,8.10
2019-04-04T20:12:45.808Z,8.10
2019-04-04T20:15:16.946Z,8.10
2019-04-04T20:17:46.591Z,8.10
2019-04-04T20:20:16.109Z,8.10
2019-04-04T20:22:45.813Z,8.10
2019-04-04T20:25:15.203Z,8.10
2019-04-04T20:27:54.189Z,8.00
2019-04-04T20:30:16.617Z,8.00
2019-04-04T20:32:45.986Z,8.00
2019-04-04T20:35:15.378Z,8.00
2019-04-04T20:37:44.742Z,8.00
2019-04-04T20:40:14.188Z,8.00
2019-04-04T20:42:43.568Z,8.00
2019-04-04T20:45:13.016Z,8.00
2019-04-04T20:47:42.408Z,7.90
2019-04-04T20:50:12.264Z,7.90
2019-04-04T20:52:41.633Z,7.90
2019-04-04T20:55:11.407Z,7.90
2019-04-04T20:57:41.553Z,7.90
2019-04-04T21:00:11.438Z,7.90
2019-04-04T21:02:40.809Z,7.90
2019-04-04T21:05:10.591Z,7.80
2019-04-04T21:07:39.964Z,7.80
2019-04-04T21:10:09.754Z,7.80
2019-04-04T21:12:39.120Z,7.80
2019-04-04T21:15:09.187Z,7.80
2019-04-04T21:17:38.897Z,7.80
2019-04-04T21:20:08.691Z,7.70
2019-04-04T21:22:38.061Z,7.70
2019-04-04T21:25:07.946Z,7.70
2019-04-04T21:27:37.310Z,7.70
2019-04-04T21:30:10.127Z,7.70
2019-04-04T21:32:39.487Z,7.60
2019-04-04T21:35:09.118Z,7.60
2019-04-04T21:37:38.478Z,7.60
2019-04-04T21:40:08.459Z,7.60
2019-04-04T21:42:37.824Z,7.60
2019-04-04T21:45:08.208Z,7.60
2019-04-04T21:47:37.863Z,7.60
2019-04-04T21:50:08.375Z,7.60
2019-04-04T21:52:38.388Z,7.50
2019-04-04T21:55:08.486Z,7.50
2019-04-04T21:57:37.879Z,7.50
2019-04-04T22:00:09.533Z,7.50
2019-04-04T22:02:38.902Z,7.50
2019-04-04T22:05:09.374Z,7.50
2019-04-04T22:07:38.750Z,7.40
2019-04-04T22:10:09.791Z,7.40
2019-04-04T22:12:39.164Z,7.40
2019-04-04T22:15:09.678Z,7.40
2019-04-04T22:17:39.770Z,7.40
2019-04-04T22:20:10.532Z,7.40
2019-04-04T22:22:39.912Z,7.40
2019-04-04T22:25:09.273Z,7.30
2019-04-04T22:27:38.651Z,7.30
2019-04-04T22:30:10.251Z,7.30
2019-04-04T22:32:39.626Z,7.20
2019-04-04T22:35:09.304Z,7.20
2019-04-04T22:37:38.678Z,7.10
2019-04-04T22:40:09.137Z,7.00
2019-04-04T22:42:38.552Z,7.00
2019-04-04T22:45:09.828Z,6.90
2019-04-04T22:47:39.215Z,6.90
2019-04-04T22:50:08.883Z,6.80
2019-04-04T22:52:38.259Z,6.80
2019-04-04T22:55:07.934Z,6.70
2019-04-04T22:57:37.304Z,6.70
2019-04-04T23:00:08.601Z,6.60
2019-04-04T23:02:37.984Z,6.60
2019-04-04T23:05:08.057Z,6.60
2019-04-04T23:07:37.828Z,6.60
2019-04-04T23:10:09.002Z,6.60
2019-04-04T23:12:38.519Z,6.70
2019-04-04T23:15:10.515Z,6.70
2019-04-04T23:17:39.883Z,6.70
2019-04-04T23:20:12.599Z,6.70
2019-04-04T23:22:52.094Z,6.70
2019-04-04T23:25:13.447Z,6.70
2019-04-04T23:27:42.850Z,6.80
2019-04-04T23:30:12.949Z,6.80
2019-04-04T23:32:43.831Z,6.80
2019-04-04T23:35:13.189Z,6.80
2019-04-04T23:37:42.569Z,6.90
2019-04-04T23:40:12.001Z,6.90
2019-04-04T23:42:41.374Z,6.90
2019-04-04T23:45:10.942Z,6.90
2019-04-04T23:47:43.147Z,6.90
2019-04-04T23:50:11.845Z,6.90
2019-04-04T23:52:41.219Z,6.90
2019-04-04T23:55:10.790Z,6.90
2019-04-04T23:57:40.177Z,6.90
